sensor_id;sensor_type;location;lat;lon;timestamp;P1;durP1;ratioP1;P2;durP2;ratioP2
25905;SDS011;13713;52.552;13.204;2023-06-10T00:00:35;18.58;;;15.05;;
25905;SDS011;13713;52.552;13.204;2023-06-10T00:03:01;20.02;;;15.18;;
25905;SDS011;13713;52.552;13.204;2023-06-10T00:05:26;18.55;;;15.57;;
25905;SDS011;13713;52.552;13.204;2023-06-10T00:07:55;17.25;;;15.02;;
25905;SDS011;13713;52.552;13.204;2023-06-10T00:10:21;18.30;;;15.10;;
25905;SDS011;13713;52.552;13.204;2023-06-10T00:12:49;19.08;;;15.15;;
25905;SDS011;13713;52.552;13.204;2023-06-10T00:15:16;18.58;;;14.70;;
25905;SDS011;13713;52.552;13.204;2023-06-10T00:17:42;18.08;;;15.07;;
25905;SDS011;13713;52.552;13.204;2023-06-10T00:20:08;19.90;;;15.55;;
25905;SDS011;13713;52.552;13.204;2023-06-10T00:22:37;18.20;;;15.02;;
25905;SDS011;13713;52.552;13.204;2023-06-10T00:25:05;18.55;;;15.68;;
25905;SDS011;13713;52.552;13.204;2023-06-10T00:27:31;17.50;;;14.38;;
25905;SDS011;13713;52.552;13.204;2023-06-10T00:30:03;16.90;;;14.30;;
25905;SDS011;13713;52.552;13.204;2023-06-10T00:32:32;18.42;;;14.50;;
25905;SDS011;13713;52.552;13.204;2023-06-10T00:35:01;18.42;;;15.10;;
25905;SDS011;13713;52.552;13.204;2023-06-10T00:37:30;17.75;;;14.10;;
25905;SDS011;13713;52.552;13.204;2023-06-10T00:39:57;18.85;;;15.13;;
25905;SDS011;13713;52.552;13.204;2023-06-10T00:42:24;16.88;;;14.43;;
25905;SDS011;13713;52.552;13.204;2023-06-10T00:44:50;17.73;;;14.60;;
25905;SDS011;13713;52.552;13.204;2023-06-10T00:47:16;17.73;;;14.27;;
25905;SDS011;13713;52.552;13.204;2023-06-10T00:49:42;19.65;;;15.15;;
25905;SDS011;13713;52.552;13.204;2023-06-10T00:52:09;18.80;;;14.75;;
25905;SDS011;13713;52.552;13.204;2023-06-10T00:54:39;19.27;;;15.25;;
25905;SDS011;13713;52.552;13.204;2023-06-10T00:57:05;16.67;;;13.23;;
25905;SDS011;13713;52.552;13.204;2023-06-10T00:59:31;20.23;;;14.48;;
25905;SDS011;13713;52.552;13.204;2023-06-10T01:01:57;19.15;;;13.98;;
25905;SDS011;13713;52.552;13.204;2023-06-10T01:04:23;18.80;;;13.90;;
25905;SDS011;13713;52.552;13.204;2023-06-10T01:12:26;16.48;;;14.20;;
25905;SDS011;13713;52.552;13.204;2023-06-10T01:15:04;17.23;;;14.27;;
25905;SDS011;13713;52.552;13.204;2023-06-10T01:17:31;16.77;;;13.90;;
25905;SDS011;13713;52.552;13.204;2023-06-10T01:19:57;16.27;;;13.75;;
25905;SDS011;13713;52.552;13.204;2023-06-10T01:22:26;18.92;;;15.00;;
25905;SDS011;13713;52.552;13.204;2023-06-10T01:25:01;18.08;;;14.65;;
25905;SDS011;13713;52.552;13.204;2023-06-10T01:27:32;17.40;;;14.02;;
25905;SDS011;13713;52.552;13.204;2023-06-10T01:30:06;19.45;;;14.13;;
25905;SDS011;13713;52.552;13.204;2023-06-10T01:32:43;17.25;;;13.82;;
25905;SDS011;13713;52.552;13.204;2023-06-10T01:35:14;22.08;;;14.15;;
25905;SDS011;13713;52.552;13.204;2023-06-10T01:37:41;16.10;;;13.23;;
25905;SDS011;13713;52.552;13.204;2023-06-10T01:40:10;18.60;;;13.98;;
25905;SDS011;13713;52.552;13.204;2023-06-10T01:42:37;16.05;;;13.80;;
25905;SDS011;13713;52.552;13.204;2023-06-10T01:45:03;18.60;;;14.40;;
25905;SDS011;13713;52.552;13.204;2023-06-10T01:47:29;17.52;;;14.23;;
25905;SDS011;13713;52.552;13.204;2023-06-10T01:49:55;17.10;;;13.90;;
25905;SDS011;13713;52.552;13.204;2023-06-10T01:52:21;19.38;;;14.05;;
25905;SDS011;13713;52.552;13.204;2023-06-10T01:54:47;16.83;;;13.80;;
25905;SDS011;13713;52.552;13.204;2023-06-10T01:57:12;16.88;;;13.75;;
25905;SDS011;13713;52.552;13.204;2023-06-10T01:59:38;18.25;;;13.55;;
25905;SDS011;13713;52.552;13.204;2023-06-10T02:02:04;17.00;;;13.85;;
25905;SDS011;13713;52.552;13.204;2023-06-10T02:04:31;16.52;;;13.52;;
25905;SDS011;13713;52.552;13.204;2023-06-10T02:06:58;19.20;;;13.40;;
25905;SDS011;13713;52.552;13.204;2023-06-10T02:09:28;19.58;;;14.00;;
25905;SDS011;13713;52.552;13.204;2023-06-10T02:14:26;17.70;;;13.85;;
25905;SDS011;13713;52.552;13.204;2023-06-10T02:16:52;17.95;;;14.05;;
25905;SDS011;13713;52.552;13.204;2023-06-10T02:19:21;17.15;;;13.23;;
25905;SDS011;13713;52.552;13.204;2023-06-10T02:21:47;18.65;;;14.32;;
25905;SDS011;13713;52.552;13.204;2023-06-10T02:24:13;15.13;;;12.27;;
25905;SDS011;13713;52.552;13.204;2023-06-10T02:26:38;18.55;;;13.20;;
25905;SDS011;13713;52.552;13.204;2023-06-10T02:29:05;18.45;;;13.52;;
25905;SDS011;13713;52.552;13.204;2023-06-10T02:31:31;15.90;;;13.18;;
25905;SDS011;13713;52.552;13.204;2023-06-10T02:33:57;16.00;;;13.05;;
25905;SDS011;13713;52.552;13.204;2023-06-10T02:36:24;14.63;;;12.52;;
25905;SDS011;13713;52.552;13.204;2023-06-10T02:38:52;16.38;;;13.55;;
25905;SDS011;13713;52.552;13.204;2023-06-10T02:41:18;18.13;;;13.65;;
25905;SDS011;13713;52.552;13.204;2023-06-10T02:43:45;18.35;;;13.40;;
25905;SDS011;13713;52.552;13.204;2023-06-10T02:46:11;15.80;;;12.98;;
25905;SDS011;13713;52.552;13.204;2023-06-10T02:48:40;17.83;;;13.70;;
25905;SDS011;13713;52.552;13.204;2023-06-10T02:51:13;18.50;;;13.90;;
25905;SDS011;13713;52.552;13.204;2023-06-10T02:53:42;16.02;;;13.20;;
25905;SDS011;13713;52.552;13.204;2023-06-10T02:56:10;15.43;;;12.68;;
25905;SDS011;13713;52.552;13.204;2023-06-10T02:58:37;18.20;;;13.35;;
25905;SDS011;13713;52.552;13.204;2023-06-10T03:01:04;17.92;;;14.48;;
25905;SDS011;13713;52.552;13.204;2023-06-10T03:03:39;18.17;;;13.13;;
25905;SDS011;13713;52.552;13.204;2023-06-10T03:06:10;15.50;;;12.52;;
25905;SDS011;13713;52.552;13.204;2023-06-10T03:08:36;17.73;;;13.43;;
25905;SDS011;13713;52.552;13.204;2023-06-10T03:11:07;18.58;;;13.05;;
25905;SDS011;13713;52.552;13.204;2023-06-10T03:13:34;15.60;;;12.73;;
25905;SDS011;13713;52.552;13.204;2023-06-10T03:16:01;17.13;;;12.40;;
25905;SDS011;13713;52.552;13.204;2023-06-10T03:18:29;17.08;;;12.75;;
25905;SDS011;13713;52.552;13.204;2023-06-10T03:20:54;15.15;;;12.43;;
25905;SDS011;13713;52.552;13.204;2023-06-10T03:23:22;17.42;;;12.85;;
25905;SDS011;13713;52.552;13.204;2023-06-10T03:25:49;14.73;;;12.35;;
25905;SDS011;13713;52.552;13.204;2023-06-10T03:28:17;15.10;;;12.27;;
25905;SDS011;13713;52.552;13.204;2023-06-10T03:30:43;16.08;;;13.15;;
25905;SDS011;13713;52.552;13.204;2023-06-10T03:33:09;15.60;;;12.63;;
25905;SDS011;13713;52.552;13.204;2023-06-10T03:35:36;16.77;;;12.77;;
25905;SDS011;13713;52.552;13.204;2023-06-10T03:38:04;18.48;;;12.90;;
25905;SDS011;13713;52.552;13.204;2023-06-10T03:40:30;16.10;;;12.85;;
25905;SDS011;13713;52.552;13.204;2023-06-10T03:42:57;15.27;;;11.93;;
25905;SDS011;13713;52.552;13.204;2023-06-10T03:45:23;16.92;;;12.95;;
25905;SDS011;13713;52.552;13.204;2023-06-10T03:47:49;15.05;;;12.15;;
25905;SDS011;13713;52.552;13.204;2023-06-10T03:50:19;17.90;;;13.32;;
25905;SDS011;13713;52.552;13.204;2023-06-10T03:52:46;18.48;;;12.00;;
25905;SDS011;13713;52.552;13.204;2023-06-10T03:55:13;16.33;;;12.70;;
25905;SDS011;13713;52.552;13.204;2023-06-10T03:57:42;18.30;;;12.70;;
25905;SDS011;13713;52.552;13.204;2023-06-10T04:00:09;17.13;;;12.88;;
25905;SDS011;13713;52.552;13.204;2023-06-10T04:02:40;16.63;;;12.65;;
25905;SDS011;13713;52.552;13.204;2023-06-10T04:05:12;18.00;;;12.85;;
25905;SDS011;13713;52.552;13.204;2023-06-10T04:07:39;15.55;;;12.05;;
25905;SDS011;13713;52.552;13.204;2023-06-10T04:10:09;15.63;;;11.73;;
25905;SDS011;13713;52.552;13.204;2023-06-10T04:12:35;15.10;;;11.85;;
25905;SDS011;13713;52.552;13.204;2023-06-10T04:15:02;17.23;;;12.63;;
25905;SDS011;13713;52.552;13.204;2023-06-10T04:17:29;18.23;;;13.23;;
25905;SDS011;13713;52.552;13.204;2023-06-10T04:19:55;18.48;;;12.07;;
25905;SDS011;13713;52.552;13.204;2023-06-10T04:22:22;13.57;;;10.82;;
25905;SDS011;13713;52.552;13.204;2023-06-10T04:24:48;16.92;;;11.80;;
25905;SDS011;13713;52.552;13.204;2023-06-10T04:27:14;15.43;;;11.50;;
25905;SDS011;13713;52.552;13.204;2023-06-10T04:29:41;13.85;;;11.77;;
25905;SDS011;13713;52.552;13.204;2023-06-10T04:32:07;19.25;;;12.18;;
25905;SDS011;13713;52.552;13.204;2023-06-10T04:34:33;14.82;;;11.95;;
25905;SDS011;13713;52.552;13.204;2023-06-10T04:36:59;16.08;;;12.40;;
25905;SDS011;13713;52.552;13.204;2023-06-10T04:39:25;16.67;;;11.52;;
25905;SDS011;13713;52.552;13.204;2023-06-10T04:41:52;14.80;;;12.18;;
25905;SDS011;13713;52.552;13.204;2023-06-10T04:44:17;15.88;;;11.52;;
25905;SDS011;13713;52.552;13.204;2023-06-10T04:46:44;15.55;;;11.07;;
25905;SDS011;13713;52.552;13.204;2023-06-10T04:49:10;15.65;;;11.60;;
25905;SDS011;13713;52.552;13.204;2023-06-10T04:51:39;17.23;;;12.13;;
25905;SDS011;13713;52.552;13.204;2023-06-10T04:54:06;15.93;;;12.32;;
25905;SDS011;13713;52.552;13.204;2023-06-10T04:56:32;16.20;;;12.07;;
25905;SDS011;13713;52.552;13.204;2023-06-10T04:58:58;14.45;;;11.38;;
25905;SDS011;13713;52.552;13.204;2023-06-10T05:01:24;17.58;;;12.35;;
25905;SDS011;13713;52.552;13.204;2023-06-10T05:03:50;14.50;;;10.27;;
25905;SDS011;13713;52.552;13.204;2023-06-10T05:06:16;15.57;;;10.25;;
25905;SDS011;13713;52.552;13.204;2023-06-10T05:08:41;15.27;;;11.88;;
25905;SDS011;13713;52.552;13.204;2023-06-10T05:11:07;15.75;;;11.40;;
25905;SDS011;13713;52.552;13.204;2023-06-10T05:13:33;15.38;;;12.23;;
25905;SDS011;13713;52.552;13.204;2023-06-10T05:15:59;16.35;;;11.90;;
25905;SDS011;13713;52.552;13.204;2023-06-10T05:18:25;15.57;;;11.75;;
25905;SDS011;13713;52.552;13.204;2023-06-10T05:20:50;16.08;;;11.88;;
25905;SDS011;13713;52.552;13.204;2023-06-10T05:23:16;13.45;;;11.52;;
25905;SDS011;13713;52.552;13.204;2023-06-10T05:25:42;15.82;;;11.95;;
25905;SDS011;13713;52.552;13.204;2023-06-10T05:28:08;15.45;;;12.15;;
25905;SDS011;13713;52.552;13.204;2023-06-10T05:30:36;15.60;;;12.25;;
25905;SDS011;13713;52.552;13.204;2023-06-10T05:33:03;16.75;;;12.15;;
25905;SDS011;13713;52.552;13.204;2023-06-10T05:35:31;15.60;;;12.10;;
25905;SDS011;13713;52.552;13.204;2023-06-10T05:37:57;16.38;;;12.00;;
25905;SDS011;13713;52.552;13.204;2023-06-10T05:40:23;16.10;;;11.25;;
25905;SDS011;13713;52.552;13.204;2023-06-10T05:42:49;16.17;;;12.48;;
25905;SDS011;13713;52.552;13.204;2023-06-10T05:45:14;14.60;;;11.73;;
25905;SDS011;13713;52.552;13.204;2023-06-10T05:47:41;17.63;;;12.40;;
25905;SDS011;13713;52.552;13.204;2023-06-10T05:50:06;16.73;;;11.38;;
25905;SDS011;13713;52.552;13.204;2023-06-10T05:52:36;16.40;;;12.48;;
25905;SDS011;13713;52.552;13.204;2023-06-10T05:55:05;16.77;;;12.15;;
25905;SDS011;13713;52.552;13.204;2023-06-10T05:57:32;15.10;;;12.40;;
25905;SDS011;13713;52.552;13.204;2023-06-10T05:59:57;15.57;;;12.40;;
25905;SDS011;13713;52.552;13.204;2023-06-10T06:02:23;17.05;;;12.65;;
25905;SDS011;13713;52.552;13.204;2023-06-10T06:04:49;16.50;;;12.07;;
25905;SDS011;13713;52.552;13.204;2023-06-10T06:07:15;15.50;;;12.82;;
25905;SDS011;13713;52.552;13.204;2023-06-10T06:09:40;15.57;;;12.60;;
25905;SDS011;13713;52.552;13.204;2023-06-10T06:12:06;16.50;;;12.10;;
25905;SDS011;13713;52.552;13.204;2023-06-10T06:14:36;17.83;;;12.32;;
25905;SDS011;13713;52.552;13.204;2023-06-10T06:17:04;20.00;;;12.60;;
25905;SDS011;13713;52.552;13.204;2023-06-10T06:19:31;16.52;;;12.43;;
25905;SDS011;13713;52.552;13.204;2023-06-10T06:21:56;15.98;;;12.48;;
25905;SDS011;13713;52.552;13.204;2023-06-10T06:24:22;16.52;;;12.65;;
25905;SDS011;13713;52.552;13.204;2023-06-10T06:26:48;16.65;;;12.40;;
25905;SDS011;13713;52.552;13.204;2023-06-10T06:29:13;15.90;;;12.02;;
25905;SDS011;13713;52.552;13.204;2023-06-10T06:31:39;14.45;;;11.70;;
25905;SDS011;13713;52.552;13.204;2023-06-10T06:34:04;15.00;;;12.68;;
25905;SDS011;13713;52.552;13.204;2023-06-10T06:36:30;15.65;;;13.07;;
25905;SDS011;13713;52.552;13.204;2023-06-10T06:38:56;15.98;;;12.65;;
25905;SDS011;13713;52.552;13.204;2023-06-10T06:41:24;17.60;;;12.70;;
25905;SDS011;13713;52.552;13.204;2023-06-10T06:43:53;17.88;;;12.85;;
25905;SDS011;13713;52.552;13.204;2023-06-10T06:46:29;18.25;;;13.07;;
25905;SDS011;13713;52.552;13.204;2023-06-10T06:48:55;15.73;;;12.60;;
25905;SDS011;13713;52.552;13.204;2023-06-10T06:51:20;17.23;;;12.60;;
25905;SDS011;13713;52.552;13.204;2023-06-10T06:53:46;18.77;;;13.15;;
25905;SDS011;13713;52.552;13.204;2023-06-10T06:56:12;19.60;;;13.10;;
25905;SDS011;13713;52.552;13.204;2023-06-10T06:58:38;18.38;;;12.90;;
25905;SDS011;13713;52.552;13.204;2023-06-10T07:01:04;18.42;;;13.55;;
25905;SDS011;13713;52.552;13.204;2023-06-10T07:03:30;17.27;;;13.45;;
25905;SDS011;13713;52.552;13.204;2023-06-10T07:05:56;18.35;;;13.20;;
25905;SDS011;13713;52.552;13.204;2023-06-10T07:08:21;15.85;;;12.88;;
25905;SDS011;13713;52.552;13.204;2023-06-10T07:10:47;16.38;;;13.18;;
25905;SDS011;13713;52.552;13.204;2023-06-10T07:13:14;15.18;;;13.27;;
25905;SDS011;13713;52.552;13.204;2023-06-10T07:15:40;16.25;;;12.43;;
25905;SDS011;13713;52.552;13.204;2023-06-10T07:18:05;16.38;;;12.75;;
25905;SDS011;13713;52.552;13.204;2023-06-10T07:20:31;16.17;;;12.82;;
25905;SDS011;13713;52.552;13.204;2023-06-10T07:22:56;18.50;;;13.50;;
25905;SDS011;13713;52.552;13.204;2023-06-10T07:25:22;18.95;;;13.57;;
25905;SDS011;13713;52.552;13.204;2023-06-10T07:27:49;18.48;;;13.80;;
25905;SDS011;13713;52.552;13.204;2023-06-10T07:30:14;19.38;;;13.32;;
25905;SDS011;13713;52.552;13.204;2023-06-10T07:32:40;17.95;;;14.07;;
25905;SDS011;13713;52.552;13.204;2023-06-10T07:35:07;18.27;;;14.10;;
25905;SDS011;13713;52.552;13.204;2023-06-10T07:37:36;18.38;;;13.60;;
25905;SDS011;13713;52.552;13.204;2023-06-10T07:40:01;17.10;;;13.63;;
25905;SDS011;13713;52.552;13.204;2023-06-10T07:42:27;19.00;;;14.40;;
25905;SDS011;13713;52.552;13.204;2023-06-10T07:44:53;16.70;;;13.70;;
25905;SDS011;13713;52.552;13.204;2023-06-10T07:47:18;17.35;;;14.25;;
25905;SDS011;13713;52.552;13.204;2023-06-10T07:49:44;18.20;;;13.80;;
25905;SDS011;13713;52.552;13.204;2023-06-10T07:52:10;16.45;;;14.30;;
25905;SDS011;13713;52.552;13.204;2023-06-10T07:54:35;19.23;;;14.30;;
25905;SDS011;13713;52.552;13.204;2023-06-10T07:57:01;15.75;;;13.77;;
25905;SDS011;13713;52.552;13.204;2023-06-10T07:59:27;18.75;;;14.70;;
25905;SDS011;13713;52.552;13.204;2023-06-10T08:01:53;18.10;;;14.18;;
25905;SDS011;13713;52.552;13.204;2023-06-10T08:04:18;17.95;;;14.50;;
25905;SDS011;13713;52.552;13.204;2023-06-10T08:06:44;17.08;;;14.00;;
25905;SDS011;13713;52.552;13.204;2023-06-10T08:09:10;18.48;;;14.82;;
25905;SDS011;13713;52.552;13.204;2023-06-10T08:11:35;18.23;;;13.95;;
25905;SDS011;13713;52.552;13.204;2023-06-10T08:14:01;16.67;;;13.77;;
25905;SDS011;13713;52.552;13.204;2023-06-10T08:16:27;18.65;;;14.55;;
25905;SDS011;13713;52.552;13.204;2023-06-10T08:18:52;19.58;;;14.40;;
25905;SDS011;13713;52.552;13.204;2023-06-10T08:21:18;18.65;;;15.10;;
25905;SDS011;13713;52.552;13.204;2023-06-10T08:23:44;18.13;;;15.05;;
25905;SDS011;13713;52.552;13.204;2023-06-10T08:26:10;17.80;;;14.45;;
25905;SDS011;13713;52.552;13.204;2023-06-10T08:28:35;19.08;;;14.88;;
25905;SDS011;13713;52.552;13.204;2023-06-10T08:31:01;17.02;;;15.23;;
25905;SDS011;13713;52.552;13.204;2023-06-10T08:33:27;17.38;;;15.02;;
25905;SDS011;13713;52.552;13.204;2023-06-10T08:35:52;19.25;;;15.15;;
25905;SDS011;13713;52.552;13.204;2023-06-10T08:38:18;20.13;;;16.30;;
25905;SDS011;13713;52.552;13.204;2023-06-10T08:40:44;19.65;;;15.30;;
25905;SDS011;13713;52.552;13.204;2023-06-10T08:43:59;18.65;;;15.30;;
25905;SDS011;13713;52.552;13.204;2023-06-10T08:45:56;19.42;;;15.25;;
25905;SDS011;13713;52.552;13.204;2023-06-10T08:48:26;20.73;;;15.93;;
25905;SDS011;13713;52.552;13.204;2023-06-10T08:50:57;18.83;;;15.63;;
25905;SDS011;13713;52.552;13.204;2023-06-10T08:53:23;19.95;;;15.93;;
25905;SDS011;13713;52.552;13.204;2023-06-10T08:55:51;18.63;;;15.23;;
25905;SDS011;13713;52.552;13.204;2023-06-10T08:58:17;20.00;;;15.27;;
25905;SDS011;13713;52.552;13.204;2023-06-10T09:00:44;19.92;;;16.27;;
25905;SDS011;13713;52.552;13.204;2023-06-10T09:03:10;21.70;;;16.67;;
25905;SDS011;13713;52.552;13.204;2023-06-10T09:05:37;19.33;;;16.17;;
25905;SDS011;13713;52.552;13.204;2023-06-10T09:08:03;19.90;;;15.65;;
25905;SDS011;13713;52.552;13.204;2023-06-10T09:10:31;20.38;;;16.23;;
25905;SDS011;13713;52.552;13.204;2023-06-10T09:12:57;21.73;;;16.55;;
25905;SDS011;13713;52.552;13.204;2023-06-10T09:15:23;22.15;;;16.83;;
25905;SDS011;13713;52.552;13.204;2023-06-10T09:17:49;20.77;;;16.50;;
25905;SDS011;13713;52.552;13.204;2023-06-10T09:20:16;21.80;;;17.02;;
25905;SDS011;13713;52.552;13.204;2023-06-10T09:22:42;19.17;;;16.88;;
25905;SDS011;13713;52.552;13.204;2023-06-10T09:25:10;21.30;;;17.42;;
25905;SDS011;13713;52.552;13.204;2023-06-10T09:27:46;19.25;;;17.15;;
25905;SDS011;13713;52.552;13.204;2023-06-10T09:30:28;20.15;;;16.88;;
25905;SDS011;13713;52.552;13.204;2023-06-10T09:32:55;21.05;;;16.60;;
25905;SDS011;13713;52.552;13.204;2023-06-10T09:35:25;21.00;;;17.27;;
25905;SDS011;13713;52.552;13.204;2023-06-10T09:37:53;20.50;;;16.83;;
25905;SDS011;13713;52.552;13.204;2023-06-10T09:40:22;22.27;;;16.93;;
25905;SDS011;13713;52.552;13.204;2023-06-10T09:42:55;22.85;;;17.45;;
25905;SDS011;13713;52.552;13.204;2023-06-10T09:45:31;21.95;;;18.30;;
25905;SDS011;13713;52.552;13.204;2023-06-10T09:47:57;20.00;;;17.02;;
25905;SDS011;13713;52.552;13.204;2023-06-10T09:50:23;20.42;;;17.02;;
25905;SDS011;13713;52.552;13.204;2023-06-10T09:52:50;21.80;;;17.45;;
25905;SDS011;13713;52.552;13.204;2023-06-10T09:55:16;22.80;;;18.88;;
25905;SDS011;13713;52.552;13.204;2023-06-10T09:57:42;21.42;;;18.15;;
25905;SDS011;13713;52.552;13.204;2023-06-10T10:00:13;22.63;;;17.90;;
25905;SDS011;13713;52.552;13.204;2023-06-10T10:02:43;20.50;;;17.23;;
25905;SDS011;13713;52.552;13.204;2023-06-10T10:05:12;22.75;;;18.30;;
25905;SDS011;13713;52.552;13.204;2023-06-10T10:07:39;22.92;;;18.80;;
25905;SDS011;13713;52.552;13.204;2023-06-10T10:10:05;21.65;;;17.80;;
25905;SDS011;13713;52.552;13.204;2023-06-10T10:12:33;21.60;;;18.45;;
25905;SDS011;13713;52.552;13.204;2023-06-10T10:15:00;23.95;;;19.17;;
25905;SDS011;13713;52.552;13.204;2023-06-10T10:17:27;20.95;;;17.85;;
25905;SDS011;13713;52.552;13.204;2023-06-10T10:19:56;23.55;;;18.48;;
25905;SDS011;13713;52.552;13.204;2023-06-10T10:22:34;23.23;;;18.27;;
25905;SDS011;13713;52.552;13.204;2023-06-10T10:25:05;23.65;;;18.40;;
25905;SDS011;13713;52.552;13.204;2023-06-10T10:27:48;20.63;;;17.63;;
25905;SDS011;13713;52.552;13.204;2023-06-10T10:30:23;23.75;;;18.80;;
25905;SDS011;13713;52.552;13.204;2023-06-10T10:32:57;23.42;;;18.90;;
25905;SDS011;13713;52.552;13.204;2023-06-10T10:35:26;24.98;;;19.55;;
25905;SDS011;13713;52.552;13.204;2023-06-10T10:37:53;22.77;;;19.13;;
25905;SDS011;13713;52.552;13.204;2023-06-10T10:40:23;25.77;;;18.88;;
25905;SDS011;13713;52.552;13.204;2023-06-10T10:42:50;23.77;;;18.75;;
25905;SDS011;13713;52.552;13.204;2023-06-10T10:45:17;24.30;;;20.55;;
25905;SDS011;13713;52.552;13.204;2023-06-10T10:47:44;24.92;;;20.77;;
25905;SDS011;13713;52.552;13.204;2023-06-10T10:50:15;25.52;;;19.98;;
25905;SDS011;13713;52.552;13.204;2023-06-10T10:55:21;26.27;;;19.20;;
25905;SDS011;13713;52.552;13.204;2023-06-10T10:57:54;24.80;;;19.83;;
25905;SDS011;13713;52.552;13.204;2023-06-10T11:00:27;26.02;;;20.10;;
25905;SDS011;13713;52.552;13.204;2023-06-10T11:02:57;23.00;;;19.40;;
25905;SDS011;13713;52.552;13.204;2023-06-10T11:05:37;22.10;;;18.70;;
25905;SDS011;13713;52.552;13.204;2023-06-10T11:08:05;25.45;;;19.33;;
25905;SDS011;13713;52.552;13.204;2023-06-10T11:10:38;23.25;;;18.52;;
25905;SDS011;13713;52.552;13.204;2023-06-10T11:13:05;24.08;;;19.40;;
25905;SDS011;13713;52.552;13.204;2023-06-10T11:15:39;22.83;;;19.57;;
25905;SDS011;13713;52.552;13.204;2023-06-10T11:18:20;22.45;;;18.40;;
25905;SDS011;13713;52.552;13.204;2023-06-10T11:23:25;23.92;;;19.40;;
25905;SDS011;13713;52.552;13.204;2023-06-10T11:33:54;25.33;;;18.85;;
25905;SDS011;13713;52.552;13.204;2023-06-10T11:36:21;23.08;;;19.08;;
25905;SDS011;13713;52.552;13.204;2023-06-10T11:38:47;23.10;;;19.55;;
25905;SDS011;13713;52.552;13.204;2023-06-10T11:41:14;23.98;;;19.63;;
25905;SDS011;13713;52.552;13.204;2023-06-10T11:43:42;24.35;;;19.95;;
25905;SDS011;13713;52.552;13.204;2023-06-10T11:46:12;21.38;;;18.88;;
25905;SDS011;13713;52.552;13.204;2023-06-10T11:48:38;26.05;;;20.17;;
25905;SDS011;13713;52.552;13.204;2023-06-10T11:51:07;23.58;;;18.77;;
25905;SDS011;13713;52.552;13.204;2023-06-10T11:53:33;22.02;;;19.23;;
25905;SDS011;13713;52.552;13.204;2023-06-10T11:55:59;24.73;;;19.55;;
25905;SDS011;13713;52.552;13.204;2023-06-10T11:58:24;22.73;;;18.15;;
25905;SDS011;13713;52.552;13.204;2023-06-10T12:00:51;21.45;;;18.75;;
25905;SDS011;13713;52.552;13.204;2023-06-10T12:03:18;22.63;;;18.48;;
25905;SDS011;13713;52.552;13.204;2023-06-10T12:06:05;22.20;;;18.75;;
25905;SDS011;13713;52.552;13.204;2023-06-10T12:08:32;22.90;;;17.98;;
25905;SDS011;13713;52.552;13.204;2023-06-10T12:10:59;22.67;;;18.15;;
25905;SDS011;13713;52.552;13.204;2023-06-10T12:13:26;21.17;;;17.95;;
25905;SDS011;13713;52.552;13.204;2023-06-10T12:15:52;22.65;;;18.38;;
25905;SDS011;13713;52.552;13.204;2023-06-10T12:18:20;22.20;;;18.55;;
25905;SDS011;13713;52.552;13.204;2023-06-10T12:20:47;26.60;;;18.95;;
25905;SDS011;13713;52.552;13.204;2023-06-10T12:23:14;25.88;;;19.08;;
25905;SDS011;13713;52.552;13.204;2023-06-10T12:25:50;23.10;;;18.73;;
25905;SDS011;13713;52.552;13.204;2023-06-10T12:28:20;21.20;;;18.08;;
25905;SDS011;13713;52.552;13.204;2023-06-10T12:30:49;23.13;;;17.85;;
25905;SDS011;13713;52.552;13.204;2023-06-10T12:33:19;24.77;;;19.17;;
25905;SDS011;13713;52.552;13.204;2023-06-10T12:35:49;22.73;;;18.58;;
25905;SDS011;13713;52.552;13.204;2023-06-10T12:38:25;22.63;;;19.27;;
25905;SDS011;13713;52.552;13.204;2023-06-10T12:41:01;21.38;;;18.33;;
25905;SDS011;13713;52.552;13.204;2023-06-10T12:43:30;21.40;;;17.73;;
25905;SDS011;13713;52.552;13.204;2023-06-10T12:46:07;22.55;;;18.02;;
25905;SDS011;13713;52.552;13.204;2023-06-10T12:48:34;19.80;;;16.42;;
25905;SDS011;13713;52.552;13.204;2023-06-10T12:51:00;21.92;;;17.98;;
25905;SDS011;13713;52.552;13.204;2023-06-10T12:53:26;21.70;;;18.83;;
25905;SDS011;13713;52.552;13.204;2023-06-10T12:55:52;21.55;;;18.60;;
25905;SDS011;13713;52.552;13.204;2023-06-10T12:58:21;21.48;;;18.20;;
25905;SDS011;13713;52.552;13.204;2023-06-10T13:00:48;20.77;;;18.25;;
25905;SDS011;13713;52.552;13.204;2023-06-10T13:03:14;21.70;;;18.65;;
25905;SDS011;13713;52.552;13.204;2023-06-10T13:05:40;20.55;;;17.17;;
25905;SDS011;13713;52.552;13.204;2023-06-10T13:08:06;21.02;;;18.30;;
25905;SDS011;13713;52.552;13.204;2023-06-10T13:10:32;21.30;;;17.85;;
25905;SDS011;13713;52.552;13.204;2023-06-10T13:13:02;23.58;;;18.75;;
25905;SDS011;13713;52.552;13.204;2023-06-10T13:15:31;21.05;;;17.95;;
25905;SDS011;13713;52.552;13.204;2023-06-10T13:18:01;22.27;;;19.27;;
25905;SDS011;13713;52.552;13.204;2023-06-10T13:20:28;20.73;;;17.58;;
25905;SDS011;13713;52.552;13.204;2023-06-10T13:22:54;24.58;;;19.13;;
25905;SDS011;13713;52.552;13.204;2023-06-10T13:25:20;22.35;;;18.13;;
25905;SDS011;13713;52.552;13.204;2023-06-10T13:27:46;23.63;;;18.88;;
25905;SDS011;13713;52.552;13.204;2023-06-10T13:30:11;20.85;;;17.77;;
25905;SDS011;13713;52.552;13.204;2023-06-10T13:32:37;21.27;;;18.77;;
25905;SDS011;13713;52.552;13.204;2023-06-10T13:35:04;20.80;;;17.85;;
25905;SDS011;13713;52.552;13.204;2023-06-10T13:37:29;21.83;;;18.85;;
25905;SDS011;13713;52.552;13.204;2023-06-10T13:39:55;22.42;;;17.75;;
25905;SDS011;13713;52.552;13.204;2023-06-10T13:42:21;22.27;;;19.10;;
25905;SDS011;13713;52.552;13.204;2023-06-10T13:44:47;21.52;;;18.33;;
25905;SDS011;13713;52.552;13.204;2023-06-10T13:47:14;21.90;;;18.13;;
25905;SDS011;13713;52.552;13.204;2023-06-10T13:49:39;24.55;;;18.95;;
25905;SDS011;13713;52.552;13.204;2023-06-10T13:52:06;21.23;;;19.00;;
25905;SDS011;13713;52.552;13.204;2023-06-10T13:54:32;21.17;;;18.35;;
25905;SDS011;13713;52.552;13.204;2023-06-10T13:56:58;21.98;;;19.15;;
25905;SDS011;13713;52.552;13.204;2023-06-10T13:59:25;22.90;;;20.17;;
25905;SDS011;13713;52.552;13.204;2023-06-10T14:01:51;23.63;;;19.58;;
25905;SDS011;13713;52.552;13.204;2023-06-10T14:04:16;24.17;;;20.05;;
25905;SDS011;13713;52.552;13.204;2023-06-10T14:06:42;22.50;;;19.80;;
25905;SDS011;13713;52.552;13.204;2023-06-10T14:09:08;22.60;;;19.67;;
25905;SDS011;13713;52.552;13.204;2023-06-10T14:11:34;22.70;;;19.77;;
25905;SDS011;13713;52.552;13.204;2023-06-10T14:14:00;22.67;;;19.55;;
25905;SDS011;13713;52.552;13.204;2023-06-10T14:16:26;22.40;;;20.00;;
25905;SDS011;13713;52.552;13.204;2023-06-10T14:18:52;22.65;;;20.25;;
25905;SDS011;13713;52.552;13.204;2023-06-10T14:21:18;20.92;;;18.65;;
25905;SDS011;13713;52.552;13.204;2023-06-10T14:23:44;29.45;;;19.33;;
25905;SDS011;13713;52.552;13.204;2023-06-10T14:26:10;22.88;;;20.08;;
25905;SDS011;13713;52.552;13.204;2023-06-10T14:28:36;22.42;;;19.77;;
25905;SDS011;13713;52.552;13.204;2023-06-10T14:31:02;22.02;;;19.70;;